createdAt,value
2018-07-04T00:06:34.810Z,99.99
2018-07-04T00:16:35.068Z,99.99
2018-07-04T00:26:34.729Z,99.99
2018-07-04T00:36:34.684Z,99.99
2018-07-04T00:46:34.655Z,99.99
2018-07-04T00:56:34.762Z,99.99
2018-07-04T01:06:34.715Z,99.99
2018-07-04T01:16:34.750Z,99.99
2018-07-04T01:26:34.694Z,99.99
2018-07-04T01:36:34.685Z,99.99
2018-07-04T01:46:34.751Z,99.99
2018-07-04T01:56:34.735Z,99.99
2018-07-04T02:06:34.650Z,99.99
2018-07-04T02:16:34.709Z,99.99
2018-07-04T02:26:34.690Z,99.99
2018-07-04T02:36:34.763Z,99.99
2018-07-04T02:46:34.694Z,99.99
2018-07-04T02:56:34.696Z,99.99
2018-07-04T03:06:34.716Z,99.99
2018-07-04T03:16:34.700Z,99.99
2018-07-04T03:26:34.629Z,99.99
2018-07-04T03:36:34.685Z,99.99
2018-07-04T03:46:34.679Z,99.99
2018-07-04T03:56:34.723Z,99.99
2018-07-04T04:06:34.699Z,99.99
2018-07-04T04:16:34.631Z,99.99
2018-07-04T04:26:34.703Z,99.99
2018-07-04T04:36:34.695Z,99.99
2018-07-04T04:46:34.743Z,99.99
2018-07-04T04:56:34.713Z,99.99
2018-07-04T05:06:34.687Z,99.99
2018-07-04T05:16:34.729Z,99.99
2018-07-04T05:26:34.711Z,99.99
2018-07-04T05:36:34.687Z,99.99
2018-07-04T05:46:34.715Z,99.99
2018-07-04T05:56:34.728Z,91.75
2018-07-04T06:06:34.757Z,86.11
2018-07-04T06:16:34.737Z,72.54
2018-07-04T06:26:34.674Z,74.49
2018-07-04T06:36:34.819Z,76.87
2018-07-04T06:46:34.692Z,76.9
2018-07-04T06:56:34.746Z,77.73
2018-07-04T07:06:34.712Z,76.95
2018-07-04T07:16:34.667Z,74.48
2018-07-04T07:26:34.754Z,70.84
2018-07-04T07:36:34.700Z,65.53
2018-07-04T07:46:34.746Z,62.72
2018-07-04T07:56:34.724Z,62.88
2018-07-04T08:06:34.686Z,62.39
2018-07-04T08:16:34.725Z,59.97
2018-07-04T08:26:34.679Z,51.82
2018-07-04T08:36:34.745Z,47.22
2018-07-04T08:46:34.721Z,41.09
2018-07-04T08:56:34.802Z,38.37
2018-07-04T09:06:34.799Z,36.49
2018-07-04T09:16:34.728Z,37.93
2018-07-04T09:26:34.787Z,45.25
2018-07-04T09:36:34.764Z,48.04
2018-07-04T09:46:34.744Z,48.61
2018-07-04T09:56:34.702Z,49.05
2018-07-04T10:06:34.690Z,49.46
2018-07-04T10:16:34.715Z,50.26
2018-07-04T10:26:34.876Z,48.95
2018-07-04T10:36:34.710Z,48.29
2018-07-04T10:46:34.872Z,47.97
2018-07-04T10:56:34.726Z,49.24
2018-07-04T11:06:34.859Z,47.51
2018-07-04T11:16:34.851Z,46.17
2018-07-04T11:26:34.711Z,48.61
2018-07-04T11:36:34.730Z,45.51
2018-07-04T11:46:34.733Z,42.77
2018-07-04T11:56:34.805Z,42.29
2018-07-04T12:06:34.736Z,42.58
2018-07-04T12:16:34.728Z,41.72
2018-07-04T12:26:34.768Z,40.86
2018-07-04T12:36:34.749Z,41.44
2018-07-04T12:46:34.735Z,42.81
2018-07-04T12:56:34.740Z,40.95
2018-07-04T13:06:34.796Z,44.48
2018-07-04T13:16:34.765Z,41.33
2018-07-04T13:26:34.753Z,42.52
2018-07-04T13:36:34.792Z,43.71
2018-07-04T13:46:34.917Z,44.67
2018-07-04T13:56:34.760Z,42.81
2018-07-04T14:06:34.775Z,44.01
2018-07-04T14:16:34.909Z,42.93
2018-07-04T14:26:34.848Z,44.49
2018-07-04T14:36:34.865Z,43.52
2018-07-04T14:46:34.868Z,42.46
2018-07-04T14:56:34.931Z,42.09
2018-07-04T15:06:34.912Z,42.9
2018-07-04T15:16:35.229Z,43.76
2018-07-04T15:26:35.020Z,47.36
2018-07-04T15:36:34.843Z,51.95
2018-07-04T15:46:34.853Z,55.19
2018-07-04T15:56:34.891Z,56.14
2018-07-04T16:06:38.102Z,59.1
2018-07-04T16:16:34.871Z,58.22
2018-07-04T16:26:34.919Z,54.9
2018-07-04T16:36:34.996Z,54.17
2018-07-04T16:46:35.868Z,49.68
2018-07-04T16:56:34.865Z,50.07
2018-07-04T17:06:34.868Z,51.95
2018-07-04T17:16:34.928Z,56.12
2018-07-04T17:26:41.986Z,58.6
2018-07-04T17:36:34.927Z,61.57
2018-07-04T17:46:35.239Z,64.39
2018-07-04T17:56:35.224Z,67.44
2018-07-04T18:06:34.971Z,70.9
2018-07-04T18:16:34.865Z,73.46
2018-07-04T18:26:34.948Z,73.32
2018-07-04T18:36:34.952Z,68.92
2018-07-04T18:46:35.033Z,66.79
2018-07-04T18:56:35.059Z,65.05
2018-07-04T19:06:34.905Z,65.53
2018-07-04T19:16:35.088Z,65.98
2018-07-04T19:26:34.924Z,68.85
2018-07-04T19:36:35.170Z,68.43
2018-07-04T19:46:36.161Z,70.86
2018-07-04T19:56:34.984Z,71.3
2018-07-04T20:06:35.039Z,74.36
2018-07-04T20:16:34.973Z,72.88
2018-07-04T20:26:35.216Z,73.46
2018-07-04T20:36:35.020Z,75.64
2018-07-04T20:46:34.942Z,76.18
2018-07-04T20:56:35.019Z,77.78
2018-07-04T21:06:35.040Z,79.1
2018-07-04T21:16:34.995Z,80.45
2018-07-04T21:26:35.009Z,79.44
2018-07-04T21:36:35.113Z,80.06
2018-07-04T21:46:35.098Z,79.77
2018-07-04T21:56:35.207Z,80.51
2018-07-04T22:06:34.932Z,79.16
2018-07-04T22:16:35.037Z,80.41
2018-07-04T22:26:35.006Z,81.76
2018-07-04T22:36:35.152Z,81.81
2018-07-04T22:46:35.031Z,82.2
2018-07-04T22:56:38.603Z,84.03
2018-07-04T23:06:39.024Z,85.72
2018-07-04T23:16:34.913Z,87.41
2018-07-04T23:26:34.989Z,90.88
2018-07-04T23:36:34.947Z,91.6
2018-07-04T23:46:34.888Z,94.87
2018-07-04T23:56:35.048Z,97.04
